createdAt,value
2018-07-25T00:00:23.705Z,20.00
2018-07-25T00:02:52.682Z,20.04
2018-07-25T00:05:21.740Z,20.06
2018-07-25T00:07:50.724Z,20.07
2018-07-25T00:10:19.731Z,20.06
2018-07-25T00:12:48.895Z,20.06
2018-07-25T00:15:17.976Z,20.09
2018-07-25T00:17:47.098Z,20.06
2018-07-25T00:20:16.079Z,20.06
2018-07-25T00:22:45.109Z,20.07
2018-07-25T00:25:14.112Z,20.06
2018-07-25T00:27:43.085Z,20.09
2018-07-25T00:30:12.083Z,20.10
2018-07-25T00:32:41.063Z,20.10
2018-07-25T00:35:10.121Z,20.13
2018-07-25T00:37:39.150Z,20.15
2018-07-25T00:40:08.180Z,20.19
2018-07-25T00:42:37.159Z,20.22
2018-07-25T00:45:06.225Z,20.23
2018-07-25T00:47:35.207Z,20.25
2018-07-25T00:50:04.346Z,20.25
2018-07-25T00:52:33.400Z,20.23
2018-07-25T00:55:02.432Z,20.25
2018-07-25T00:57:31.469Z,20.25
2018-07-25T01:00:00.480Z,20.22
2018-07-25T01:02:29.553Z,20.22
2018-07-25T01:04:58.539Z,20.24
2018-07-25T01:07:27.618Z,20.24
2018-07-25T01:09:56.620Z,20.26
2018-07-25T01:12:25.632Z,20.26
2018-07-25T01:14:54.688Z,20.29
2018-07-25T01:17:23.659Z,20.28
2018-07-25T01:19:52.851Z,20.33
2018-07-25T01:22:21.852Z,20.31
2018-07-25T01:24:50.904Z,20.35
2018-07-25T01:27:19.968Z,20.35
2018-07-25T01:29:48.991Z,20.38
2018-07-25T01:32:18.060Z,20.39
2018-07-25T01:34:47.097Z,20.39
2018-07-25T01:37:16.079Z,20.39
2018-07-25T01:39:45.117Z,20.38
2018-07-25T01:42:14.156Z,20.37
2018-07-25T01:44:43.168Z,20.41
2018-07-25T01:47:12.243Z,20.42
2018-07-25T01:49:41.276Z,20.44
2018-07-25T01:52:10.336Z,20.45
2018-07-25T01:54:39.333Z,20.47
2018-07-25T01:57:08.523Z,20.50
2018-07-25T01:59:37.491Z,20.51
2018-07-25T02:02:06.653Z,20.51
2018-07-25T02:04:35.653Z,20.55
2018-07-25T02:07:04.953Z,20.56
2018-07-25T02:09:34.009Z,20.58
2018-07-25T02:12:03.084Z,20.57
2018-07-25T02:14:32.129Z,20.58
2018-07-25T02:17:01.116Z,20.59
2018-07-25T02:19:30.115Z,20.59
2018-07-25T02:21:59.114Z,20.64
2018-07-25T02:24:28.213Z,20.61
2018-07-25T02:26:57.199Z,20.60
2018-07-25T02:29:26.175Z,20.59
2018-07-25T02:31:55.301Z,20.58
2018-07-25T02:34:24.340Z,20.55
2018-07-25T02:36:53.613Z,20.55
2018-07-25T02:39:22.640Z,20.53
2018-07-25T02:41:51.639Z,20.54
2018-07-25T02:44:20.611Z,20.47
2018-07-25T02:46:49.644Z,20.46
2018-07-25T02:49:18.696Z,20.44
2018-07-25T02:51:47.656Z,20.46
2018-07-25T02:54:16.661Z,20.43
2018-07-25T02:56:45.647Z,20.47
2018-07-25T02:59:14.740Z,20.43
2018-07-25T03:01:43.731Z,20.45
2018-07-25T03:04:12.724Z,20.49
2018-07-25T03:06:41.720Z,20.48
2018-07-25T03:09:10.966Z,20.48
2018-07-25T03:11:40.192Z,20.49
2018-07-25T03:14:09.178Z,20.52
2018-07-25T03:16:38.305Z,20.50
2018-07-25T03:19:07.433Z,20.51
2018-07-25T03:21:36.466Z,20.51
2018-07-25T03:24:05.517Z,20.50
2018-07-25T03:26:34.589Z,20.48
2018-07-25T03:29:03.748Z,20.52
2018-07-25T03:31:32.773Z,20.59
2018-07-25T03:34:01.944Z,20.63
2018-07-25T03:36:30.940Z,20.59
2018-07-25T03:38:59.899Z,20.58
2018-07-25T03:41:28.898Z,20.59
2018-07-25T03:43:57.925Z,20.61
2018-07-25T03:46:27.030Z,20.65
2018-07-25T03:48:56.014Z,20.72
2018-07-25T03:51:25.136Z,20.72
2018-07-25T03:53:54.165Z,20.71
2018-07-25T03:56:23.288Z,20.64
2018-07-25T03:58:52.295Z,20.60
2018-07-25T04:01:21.324Z,20.61
2018-07-25T04:03:50.372Z,20.61
2018-07-25T04:06:19.372Z,20.65
2018-07-25T04:08:48.490Z,20.68
2018-07-25T04:11:17.479Z,20.68
2018-07-25T04:13:46.475Z,20.69
2018-07-25T04:16:15.464Z,20.65
2018-07-25T04:18:44.451Z,20.65
2018-07-25T04:21:13.492Z,20.67
2018-07-25T04:23:42.549Z,20.73
2018-07-25T04:26:11.663Z,20.70
2018-07-25T04:28:40.644Z,20.72
2018-07-25T04:31:09.648Z,20.71
2018-07-25T04:33:38.648Z,20.75
2018-07-25T04:36:07.633Z,20.76
2018-07-25T04:38:36.636Z,20.80
2018-07-25T04:41:05.626Z,20.83
2018-07-25T04:43:34.708Z,20.86
2018-07-25T04:46:03.812Z,20.87
2018-07-25T04:48:32.791Z,20.86
2018-07-25T04:51:01.861Z,20.81
2018-07-25T04:53:30.844Z,20.78
2018-07-25T04:55:59.851Z,20.73
2018-07-25T04:58:29.765Z,20.74
2018-07-25T05:00:59.624Z,20.79
2018-07-25T05:03:28.623Z,20.82
2018-07-25T05:05:57.715Z,20.87
2018-07-25T05:08:26.704Z,20.89
2018-07-25T05:10:55.760Z,20.92
2018-07-25T05:13:24.768Z,20.97
2018-07-25T05:15:53.748Z,20.98
2018-07-25T05:18:22.800Z,20.98
2018-07-25T05:20:51.766Z,21.00
2018-07-25T05:23:20.798Z,20.98
2018-07-25T05:25:49.766Z,20.99
2018-07-25T05:28:18.808Z,21.00
2018-07-25T05:30:47.796Z,21.01
2018-07-25T05:33:16.792Z,21.05
2018-07-25T05:35:45.836Z,21.12
2018-07-25T05:38:14.889Z,21.24
2018-07-25T05:40:44.058Z,21.34
2018-07-25T05:43:13.189Z,21.40
2018-07-25T05:45:42.163Z,21.47
2018-07-25T05:48:11.168Z,21.60
2018-07-25T05:50:40.134Z,21.76
2018-07-25T05:53:09.176Z,21.86
2018-07-25T05:55:38.267Z,21.96
2018-07-25T05:58:07.280Z,22.03
2018-07-25T06:00:36.395Z,22.03
2018-07-25T06:03:05.532Z,22.00
2018-07-25T06:05:34.505Z,21.96
2018-07-25T06:08:03.487Z,21.89
2018-07-25T06:10:32.571Z,21.82
2018-07-25T06:13:01.596Z,21.77
2018-07-25T06:15:30.689Z,21.76
2018-07-25T06:17:59.707Z,21.78
2018-07-25T06:20:28.685Z,21.85
2018-07-25T06:22:57.757Z,21.90
2018-07-25T06:25:26.755Z,21.87
2018-07-25T06:27:55.849Z,21.88
2018-07-25T06:30:24.856Z,21.92
2018-07-25T06:32:53.968Z,21.94
2018-07-25T06:35:22.992Z,21.93
2018-07-25T06:37:52.063Z,21.97
2018-07-25T06:40:21.136Z,22.00
2018-07-25T06:42:50.200Z,22.05
2018-07-25T06:45:20.144Z,22.09
2018-07-25T06:47:49.135Z,22.15
2018-07-25T06:50:18.248Z,22.29
2018-07-25T06:52:47.240Z,22.49
2018-07-25T06:55:16.276Z,22.62
2018-07-25T06:57:45.296Z,22.71
2018-07-25T07:00:14.374Z,22.77
2018-07-25T07:02:43.393Z,22.82
2018-07-25T07:05:12.401Z,22.85
2018-07-25T07:07:41.456Z,22.91
2018-07-25T07:10:10.463Z,22.98
2018-07-25T07:12:39.544Z,23.09
2018-07-25T07:15:09.849Z,23.13
2018-07-25T07:17:38.888Z,23.18
2018-07-25T07:20:07.919Z,23.26
2018-07-25T07:22:36.912Z,23.36
2018-07-25T07:25:06.704Z,23.43
2018-07-25T07:27:35.908Z,23.54
2018-07-25T07:30:05.448Z,23.66
2018-07-25T07:32:34.458Z,23.74
2018-07-25T07:35:03.504Z,23.72
2018-07-25T07:37:32.618Z,23.73
2018-07-25T07:40:01.620Z,23.70
2018-07-25T07:42:30.608Z,23.77
2018-07-25T07:44:59.789Z,23.84
2018-07-25T07:47:28.793Z,24.08
2018-07-25T07:49:57.875Z,24.38
2018-07-25T07:52:26.855Z,24.69
2018-07-25T07:54:55.904Z,24.86
2018-07-25T07:57:24.881Z,24.93
2018-07-25T07:59:54.099Z,25.16
2018-07-25T08:02:23.177Z,25.58
2018-07-25T08:04:52.389Z,25.78
2018-07-25T08:07:21.399Z,25.94
2018-07-25T08:09:50.397Z,26.37
2018-07-25T08:12:19.399Z,26.83
2018-07-25T08:14:48.446Z,27.21
2018-07-25T08:17:17.536Z,27.77
2018-07-25T08:19:46.781Z,28.25
2018-07-25T08:22:15.885Z,28.39
2018-07-25T08:24:44.904Z,28.28
2018-07-25T08:27:13.892Z,28.08
2018-07-25T08:29:42.893Z,27.80
2018-07-25T08:32:12.926Z,27.45
2018-07-25T08:34:42.052Z,26.66
2018-07-25T08:37:11.044Z,26.26
2018-07-25T08:39:40.070Z,26.16
2018-07-25T08:42:09.113Z,25.75
2018-07-25T08:44:38.166Z,25.48
2018-07-25T08:47:07.228Z,25.23
2018-07-25T08:49:36.261Z,25.15
2018-07-25T08:52:08.287Z,25.20
2018-07-25T08:54:37.324Z,25.33
2018-07-25T08:57:06.673Z,25.49
2018-07-25T08:59:35.640Z,25.75
2018-07-25T09:02:04.707Z,25.98
2018-07-25T09:04:33.778Z,26.15
2018-07-25T09:07:02.995Z,26.25
2018-07-25T09:09:32.153Z,26.37
2018-07-25T09:12:01.145Z,27.00
2018-07-25T09:14:30.934Z,27.25
2018-07-25T09:16:59.904Z,27.20
2018-07-25T09:19:28.968Z,26.74
2018-07-25T09:21:57.996Z,26.23
2018-07-25T09:24:27.012Z,26.09
2018-07-25T09:26:56.557Z,25.86
2018-07-25T09:29:25.540Z,25.70
2018-07-25T09:31:54.605Z,25.51
2018-07-25T09:34:23.637Z,25.17
2018-07-25T09:36:52.609Z,24.97
2018-07-25T09:39:21.652Z,24.89
2018-07-25T09:41:50.671Z,24.69
2018-07-25T09:44:19.681Z,24.64
2018-07-25T09:46:48.714Z,24.51
2018-07-25T09:49:17.856Z,24.41
2018-07-25T09:51:47.228Z,24.31
2018-07-25T09:54:16.312Z,24.11
2018-07-25T09:56:45.315Z,24.06
2018-07-25T09:59:14.343Z,24.08
2018-07-25T10:01:43.465Z,24.09
2018-07-25T10:04:13.280Z,24.11
2018-07-25T10:06:42.278Z,24.13
2018-07-25T10:09:13.008Z,24.18
2018-07-25T10:11:42.071Z,24.18
2018-07-25T10:14:11.473Z,24.12
2018-07-25T10:16:40.587Z,24.15
2018-07-25T10:19:09.790Z,23.97
2018-07-25T10:21:38.860Z,24.02
2018-07-25T10:24:08.242Z,24.10
2018-07-25T10:26:37.280Z,23.60
2018-07-25T10:29:06.361Z,24.29
2018-07-25T10:31:35.397Z,24.38
2018-07-25T10:34:06.715Z,24.60
2018-07-25T10:36:36.354Z,24.92
2018-07-25T10:39:08.106Z,25.26
2018-07-25T10:41:37.179Z,25.59
2018-07-25T10:44:06.442Z,25.91
2018-07-25T10:46:35.660Z,26.23
2018-07-25T10:49:05.056Z,26.56
2018-07-25T10:51:34.136Z,26.79
2018-07-25T10:54:03.198Z,26.93
2018-07-25T10:56:32.250Z,27.27
2018-07-25T10:59:01.378Z,27.54
2018-07-25T11:01:30.351Z,27.59
2018-07-25T11:03:59.429Z,27.46
2018-07-25T11:06:28.459Z,27.25
2018-07-25T11:08:57.514Z,27.05
2018-07-25T11:11:30.014Z,26.66
2018-07-25T11:14:00.361Z,26.35
2018-07-25T11:16:29.473Z,26.26
2018-07-25T11:18:58.519Z,26.36
2018-07-25T11:21:27.753Z,26.56
2018-07-25T11:23:56.862Z,27.24
2018-07-25T11:26:25.884Z,27.85
2018-07-25T11:28:55.068Z,28.23
2018-07-25T11:31:24.123Z,28.92
2018-07-25T11:33:53.272Z,29.26
2018-07-25T11:36:22.269Z,29.23
2018-07-25T11:38:51.299Z,28.86
2018-07-25T11:41:20.344Z,29.01
2018-07-25T11:43:49.618Z,29.35
2018-07-25T11:46:18.616Z,29.31
2018-07-25T11:48:47.571Z,28.98
2018-07-25T11:51:16.685Z,28.99
2018-07-25T11:53:46.255Z,29.18
2018-07-25T11:56:15.243Z,29.15
2018-07-25T11:58:44.279Z,29.04
2018-07-25T12:01:13.435Z,28.66
2018-07-25T12:03:42.357Z,28.61
2018-07-25T12:06:11.401Z,28.35
2018-07-25T12:08:40.560Z,28.19
2018-07-25T12:11:10.254Z,28.15
2018-07-25T12:13:39.367Z,28.00
2018-07-25T12:16:08.513Z,27.60
2018-07-25T12:18:37.500Z,27.41
2018-07-25T12:21:07.463Z,27.54
2018-07-25T12:23:36.491Z,27.77
2018-07-25T12:26:05.712Z,28.16
2018-07-25T12:28:34.746Z,28.04
2018-07-25T12:31:04.175Z,27.81
2018-07-25T12:33:33.211Z,27.74
2018-07-25T12:36:02.203Z,27.86
2018-07-25T12:38:31.295Z,27.95
2018-07-25T12:41:00.343Z,27.96
2018-07-25T12:43:29.621Z,27.62
2018-07-25T12:45:58.812Z,27.39
2018-07-25T12:48:27.893Z,27.43
2018-07-25T12:50:56.944Z,27.35
2018-07-25T12:53:26.057Z,27.29
2018-07-25T12:55:55.150Z,27.49
2018-07-25T12:58:24.300Z,27.83
2018-07-25T13:00:53.368Z,28.21
2018-07-25T13:03:22.380Z,28.38
2018-07-25T13:05:51.372Z,28.25
2018-07-25T13:08:20.473Z,28.47
2018-07-25T13:10:49.485Z,28.60
2018-07-25T13:13:18.565Z,28.69
2018-07-25T13:15:47.614Z,28.67
2018-07-25T13:18:16.794Z,28.87
2018-07-25T13:20:45.784Z,29.04
2018-07-25T13:23:14.807Z,29.44
2018-07-25T13:25:43.825Z,29.74
2018-07-25T13:28:12.850Z,29.74
2018-07-25T13:30:41.869Z,29.54
2018-07-25T13:33:10.969Z,29.18
2018-07-25T13:35:40.144Z,29.05
2018-07-25T13:38:09.228Z,28.50
2018-07-25T13:40:38.261Z,28.13
2018-07-25T13:43:07.373Z,27.65
2018-07-25T13:45:36.395Z,27.39
2018-07-25T13:48:05.755Z,27.38
2018-07-25T13:50:34.800Z,27.31
2018-07-25T13:53:04.146Z,27.20
2018-07-25T13:55:33.199Z,26.93
2018-07-25T13:58:02.336Z,26.80
2018-07-25T14:00:31.424Z,26.64
2018-07-25T14:03:00.437Z,26.57
2018-07-25T14:05:29.851Z,26.57
2018-07-25T14:07:59.150Z,26.65
2018-07-25T14:10:28.488Z,26.69
2018-07-25T14:12:57.597Z,26.68
2018-07-25T14:15:26.632Z,26.60
2018-07-25T14:17:55.763Z,26.60
2018-07-25T14:20:24.909Z,26.80
2018-07-25T14:22:53.918Z,27.14
2018-07-25T14:25:24.009Z,27.24
2018-07-25T14:27:53.156Z,27.30
2018-07-25T14:30:22.592Z,27.27
2018-07-25T14:32:51.560Z,27.40
2018-07-25T14:35:20.728Z,27.44
2018-07-25T14:37:49.763Z,27.29
2018-07-25T14:40:18.859Z,26.93
2018-07-25T14:42:47.793Z,26.81
2018-07-25T14:45:16.907Z,26.70
2018-07-25T14:47:46.216Z,26.65
2018-07-25T14:50:16.136Z,26.52
2018-07-25T14:52:45.264Z,26.49
2018-07-25T14:55:14.247Z,26.43
2018-07-25T14:57:43.248Z,26.43
2018-07-25T15:00:12.580Z,26.33
2018-07-25T15:02:41.631Z,26.22
2018-07-25T15:05:10.796Z,26.21
2018-07-25T15:07:39.861Z,26.18
2018-07-25T15:10:08.936Z,26.25
2018-07-25T15:13:12.347Z,26.26
2018-07-25T15:15:41.349Z,26.34
2018-07-25T15:18:10.344Z,26.38
2018-07-25T15:20:39.362Z,26.38
2018-07-25T15:23:08.500Z,26.37
2018-07-25T15:25:37.621Z,26.36
2018-07-25T15:28:06.769Z,25.72
2018-07-25T15:30:35.787Z,25.42
2018-07-25T15:33:04.857Z,25.23
2018-07-25T15:35:34.007Z,25.12
2018-07-25T15:38:03.308Z,25.13
2018-07-25T15:40:32.312Z,25.15
2018-07-25T15:43:01.464Z,25.20
2018-07-25T15:45:30.460Z,25.16
2018-07-25T15:47:59.524Z,25.06
2018-07-25T15:50:28.942Z,24.91
2018-07-25T15:52:58.351Z,24.83
2018-07-25T15:55:27.396Z,24.62
2018-07-25T15:57:56.485Z,24.50
2018-07-25T16:00:25.538Z,24.44
2018-07-25T16:02:54.544Z,24.46
2018-07-25T16:05:23.555Z,24.45
2018-07-25T16:07:52.551Z,24.28
2018-07-25T16:10:21.769Z,24.13
2018-07-25T16:12:51.008Z,24.03
2018-07-25T16:15:20.223Z,23.98
2018-07-25T16:17:49.292Z,23.90
2018-07-25T16:20:18.700Z,23.84
2018-07-25T16:22:48.046Z,23.85
2018-07-25T16:25:17.360Z,23.84
2018-07-25T16:27:46.436Z,23.82
2018-07-25T16:30:15.553Z,23.83
2018-07-25T16:32:44.866Z,23.75
2018-07-25T16:35:13.951Z,23.68
2018-07-25T16:37:43.335Z,23.64
2018-07-25T16:40:12.551Z,23.62
2018-07-25T16:42:41.968Z,23.54
2018-07-25T16:45:11.248Z,23.50
2018-07-25T16:47:40.341Z,23.38
2018-07-25T16:50:09.837Z,23.31
2018-07-25T16:52:39.167Z,23.27
2018-07-25T16:55:08.445Z,23.26
2018-07-25T16:57:37.816Z,23.22
2018-07-25T17:00:07.184Z,23.12
2018-07-25T17:02:36.642Z,23.06
2018-07-25T17:05:05.824Z,23.00
2018-07-25T17:07:35.121Z,22.93
2018-07-25T17:10:04.507Z,22.83
2018-07-25T17:12:33.908Z,22.83
2018-07-25T17:15:03.288Z,22.78
2018-07-25T17:17:32.491Z,22.75
2018-07-25T17:20:01.605Z,22.70
2018-07-25T17:22:30.656Z,22.67
2018-07-25T17:24:59.734Z,22.66
2018-07-25T17:27:28.793Z,22.55
2018-07-25T17:29:57.772Z,22.50
2018-07-25T17:32:26.779Z,22.43
2018-07-25T17:34:55.940Z,22.37
2018-07-25T17:37:25.584Z,22.25
2018-07-25T17:39:54.695Z,22.18
2018-07-25T17:42:23.795Z,22.11
2018-07-25T17:44:52.850Z,22.04
2018-07-25T17:47:21.970Z,22.00
2018-07-25T17:49:52.027Z,21.97
2018-07-25T17:52:22.157Z,21.91
2018-07-25T17:54:51.362Z,21.90
2018-07-25T17:57:20.372Z,21.81
2018-07-25T17:59:49.444Z,21.78
2018-07-25T18:02:18.699Z,21.66
2018-07-25T18:04:47.941Z,21.63
2018-07-25T18:07:17.195Z,21.57
2018-07-25T18:09:46.389Z,21.56
2018-07-25T18:12:15.491Z,21.53
2018-07-25T18:14:44.607Z,21.51
2018-07-25T18:17:13.765Z,21.48
2018-07-25T18:19:42.796Z,21.48
2018-07-25T18:22:11.919Z,21.50
2018-07-25T18:27:08.825Z,21.43
2018-07-25T18:29:37.838Z,21.43
2018-07-25T18:32:06.944Z,21.39
2018-07-25T18:34:36.049Z,21.39
2018-07-25T18:37:05.132Z,21.35
2018-07-25T18:39:34.193Z,21.37
2018-07-25T18:42:03.308Z,21.39
2018-07-25T18:44:32.347Z,21.41
2018-07-25T18:47:01.452Z,21.37
2018-07-25T18:49:30.408Z,21.29
2018-07-25T18:51:59.460Z,21.23
2018-07-25T18:54:28.504Z,21.17
2018-07-25T18:56:57.573Z,21.08
2018-07-25T18:59:26.544Z,21.07
2018-07-25T19:01:55.579Z,21.08
2018-07-25T19:04:24.613Z,21.03
2018-07-25T19:06:53.617Z,21.01
2018-07-25T19:09:22.614Z,20.98
2018-07-25T19:11:51.724Z,21.02
2018-07-25T19:14:25.802Z,20.97
2018-07-25T19:16:54.776Z,20.96
2018-07-25T19:19:23.885Z,20.95
2018-07-25T19:21:52.881Z,20.96
2018-07-25T19:24:21.904Z,20.95
2018-07-25T19:26:50.923Z,20.99
2018-07-25T19:29:20.100Z,20.99
2018-07-25T19:31:49.253Z,20.97
2018-07-25T19:34:18.220Z,20.95
2018-07-25T19:36:47.296Z,20.94
2018-07-25T19:39:16.349Z,20.88
2018-07-25T19:41:45.567Z,20.80
2018-07-25T19:44:14.556Z,20.80
2018-07-25T19:46:43.545Z,20.81
2018-07-25T19:49:12.599Z,20.87
2018-07-25T19:51:41.567Z,20.90
2018-07-25T19:54:10.527Z,20.91
2018-07-25T19:56:39.504Z,20.92
2018-07-25T19:59:08.540Z,20.90
2018-07-25T20:01:37.731Z,20.89
2018-07-25T20:04:06.952Z,20.90
2018-07-25T20:06:36.296Z,20.89
2018-07-25T20:09:08.396Z,20.87
2018-07-25T20:11:37.509Z,20.82
2018-07-25T20:14:11.661Z,20.76
2018-07-25T20:16:40.825Z,20.80
2018-07-25T20:19:09.787Z,20.77
2018-07-25T20:21:38.928Z,20.76
2018-07-25T20:24:08.028Z,20.77
2018-07-25T20:26:37.073Z,20.73
2018-07-25T20:29:06.105Z,20.72
2018-07-25T20:31:35.589Z,20.67
2018-07-25T20:34:04.647Z,20.61
2018-07-25T20:36:33.636Z,20.60
2018-07-25T20:39:04.015Z,20.60
2018-07-25T20:41:34.010Z,20.63
2018-07-25T20:44:02.995Z,20.63
2018-07-25T20:46:32.000Z,20.62
2018-07-25T20:49:01.167Z,20.58
2018-07-25T20:51:30.157Z,20.52
2018-07-25T20:53:59.234Z,20.50
2018-07-25T20:56:28.483Z,20.46
2018-07-25T20:58:57.593Z,20.43
2018-07-25T21:01:26.680Z,20.36
2018-07-25T21:03:55.836Z,20.36
2018-07-25T21:06:24.885Z,20.37
2018-07-25T21:08:54.077Z,20.34
2018-07-25T21:11:23.262Z,20.31
2018-07-25T21:13:52.321Z,20.28
2018-07-25T21:16:21.364Z,20.26
2018-07-25T21:18:51.064Z,20.25
2018-07-25T21:21:20.167Z,20.25
2018-07-25T21:23:49.059Z,20.25
2018-07-25T21:26:18.056Z,20.24
2018-07-25T21:28:48.165Z,19.84
2018-07-25T21:31:17.284Z,20.16
2018-07-25T21:33:46.284Z,20.15
2018-07-25T21:36:15.269Z,20.14
2018-07-25T21:38:44.316Z,20.09
2018-07-25T21:41:13.292Z,20.07
2018-07-25T21:43:42.312Z,20.03
2018-07-25T21:46:11.289Z,19.97
2018-07-25T21:48:40.324Z,19.98
2018-07-25T21:51:09.352Z,19.98
2018-07-25T21:53:38.396Z,20.04
2018-07-25T21:56:07.387Z,20.06
2018-07-25T21:58:36.397Z,20.05
2018-07-25T22:01:15.313Z,20.02
2018-07-25T22:03:44.799Z,19.98
2018-07-25T22:06:14.392Z,19.96
2018-07-25T22:08:43.406Z,19.92
2018-07-25T22:11:12.432Z,19.92
2018-07-25T22:13:46.339Z,19.93
2018-07-25T22:16:15.320Z,19.96
2018-07-25T22:18:44.947Z,19.96
2018-07-25T22:21:14.080Z,19.96
2018-07-25T22:23:43.088Z,19.94
2018-07-25T22:26:12.173Z,19.97
2018-07-25T22:28:41.260Z,19.94
2018-07-25T22:31:10.240Z,19.93
2018-07-25T22:33:39.220Z,19.88
2018-07-25T22:36:08.897Z,19.87
2018-07-25T22:38:38.001Z,19.93
2018-07-25T22:41:07.221Z,19.95
2018-07-25T22:43:36.437Z,19.90
2018-07-25T22:46:05.522Z,19.92
2018-07-25T22:48:34.609Z,19.88
2018-07-25T22:51:03.607Z,19.91
2018-07-25T22:53:32.608Z,19.92
2018-07-25T22:56:01.676Z,19.90
2018-07-25T22:58:30.667Z,19.87
2018-07-25T23:00:59.769Z,19.88
2018-07-25T23:03:28.836Z,19.87
2018-07-25T23:05:57.844Z,19.92
2018-07-25T23:08:26.908Z,19.95
2018-07-25T23:10:56.187Z,19.92
2018-07-25T23:13:25.516Z,19.92
2018-07-25T23:15:54.581Z,19.95
2018-07-25T23:18:23.556Z,19.98
2018-07-25T23:20:52.549Z,19.99
2018-07-25T23:23:21.582Z,20.03
2018-07-25T23:25:50.565Z,20.05
2018-07-25T23:28:19.523Z,20.07
2018-07-25T23:30:48.500Z,20.09
2018-07-25T23:33:17.512Z,20.10
2018-07-25T23:35:46.551Z,20.13
2018-07-25T23:38:15.747Z,20.18
2018-07-25T23:40:44.728Z,20.19
2018-07-25T23:43:13.711Z,20.18
2018-07-25T23:45:42.733Z,20.13
2018-07-25T23:48:11.708Z,20.08
2018-07-25T23:50:40.720Z,20.09
2018-07-25T23:53:09.836Z,19.98
2018-07-25T23:55:38.824Z,20.09
2018-07-25T23:58:07.775Z,20.06
